createdAt,value
2019-01-20T00:02:14.414Z,-6.20
2019-01-20T00:04:42.814Z,-6.20
2019-01-20T00:07:11.212Z,-6.10
2019-01-20T00:09:39.638Z,-6.10
2019-01-20T00:12:08.055Z,-6.00
2019-01-20T00:14:36.527Z,-6.00
2019-01-20T00:17:05.017Z,-5.90
2019-01-20T00:19:33.426Z,-5.90
2019-01-20T00:22:01.827Z,-5.90
2019-01-20T00:24:30.242Z,-5.90
2019-01-20T00:26:58.681Z,-5.80
2019-01-20T00:29:27.158Z,-5.80
2019-01-20T00:31:55.570Z,-5.70
2019-01-20T00:34:24.038Z,-5.70
2019-01-20T00:36:52.537Z,-5.70
2019-01-20T00:39:20.951Z,-5.80
2019-01-20T00:41:49.445Z,-5.80
2019-01-20T00:44:17.938Z,-5.80
2019-01-20T00:46:46.633Z,-5.90
2019-01-20T00:49:15.112Z,-5.90
2019-01-20T00:51:43.506Z,-5.90
2019-01-20T00:54:12.387Z,-6.00
2019-01-20T00:56:40.787Z,-6.00
2019-01-20T00:59:09.187Z,-6.00
2019-01-20T01:01:37.607Z,-6.00
2019-01-20T01:04:06.180Z,-6.00
2019-01-20T01:06:34.574Z,-6.00
2019-01-20T01:09:03.222Z,-6.10
2019-01-20T01:11:50.965Z,-6.10
2019-01-20T01:14:19.458Z,-6.20
2019-01-20T01:16:47.953Z,-6.30
2019-01-20T01:19:16.374Z,-6.30
2019-01-20T01:21:44.773Z,-6.40
2019-01-20T01:24:13.187Z,-6.50
2019-01-20T01:26:41.602Z,-6.50
2019-01-20T01:29:10.068Z,-6.60
2019-01-20T01:31:38.498Z,-6.60
2019-01-20T01:34:06.891Z,-6.60
2019-01-20T01:36:35.301Z,-6.70
2019-01-20T01:39:06.256Z,-6.70
2019-01-20T01:41:39.067Z,-6.70
2019-01-20T01:44:05.072Z,-6.80
2019-01-20T01:46:33.474Z,-6.80
2019-01-20T01:49:01.885Z,-6.80
2019-01-20T01:51:30.297Z,-6.80
2019-01-20T01:53:58.705Z,-6.80
2019-01-20T01:56:27.104Z,-6.80
2019-01-20T01:58:57.094Z,-6.90
2019-01-20T02:01:25.498Z,-6.90
2019-01-20T02:03:53.965Z,-6.90
2019-01-20T02:06:22.414Z,-6.90
2019-01-20T02:08:50.818Z,-7.00
2019-01-20T02:11:19.213Z,-7.00
2019-01-20T02:13:47.663Z,-6.90
2019-01-20T02:16:16.063Z,-6.90
2019-01-20T02:18:44.461Z,-6.90
2019-01-20T02:21:13.149Z,-6.90
2019-01-20T02:23:41.555Z,-6.90
2019-01-20T02:26:10.061Z,-6.90
2019-01-20T02:28:38.497Z,-6.90
2019-01-20T02:31:06.911Z,-6.80
2019-01-20T02:33:35.309Z,-6.80
2019-01-20T02:36:03.800Z,-6.80
2019-01-20T02:38:32.203Z,-6.90
2019-01-20T02:41:00.622Z,-6.90
2019-01-20T02:43:29.027Z,-6.90
2019-01-20T02:45:57.430Z,-7.00
2019-01-20T02:48:25.858Z,-7.00
2019-01-20T02:50:54.267Z,-7.00
2019-01-20T02:53:22.666Z,-7.00
2019-01-20T02:55:51.082Z,-7.00
2019-01-20T02:58:19.486Z,-7.00
2019-01-20T03:00:47.890Z,-7.00
2019-01-20T03:03:16.302Z,-6.90
2019-01-20T03:05:44.809Z,-6.90
2019-01-20T03:08:13.206Z,-6.90
2019-01-20T03:10:41.622Z,-6.80
2019-01-20T03:13:10.231Z,-6.70
2019-01-20T03:15:38.631Z,-6.60
2019-01-20T03:18:07.048Z,-6.50
2019-01-20T03:20:35.463Z,-6.50
2019-01-20T03:23:03.933Z,-6.40
2019-01-20T03:25:32.322Z,-6.30
2019-01-20T03:28:00.737Z,-6.30
2019-01-20T03:30:29.155Z,-6.20
2019-01-20T03:32:57.567Z,-6.20
2019-01-20T03:35:25.961Z,-6.20
2019-01-20T03:37:54.369Z,-6.20
2019-01-20T03:40:22.913Z,-6.20
2019-01-20T03:42:51.453Z,-6.10
2019-01-20T03:45:20.787Z,-6.10
2019-01-20T03:47:49.326Z,-6.10
2019-01-20T03:50:18.054Z,-6.10
2019-01-20T03:52:46.542Z,-6.00
2019-01-20T03:55:16.676Z,-6.00
2019-01-20T03:57:45.094Z,-5.90
2019-01-20T04:00:21.658Z,-5.90
2019-01-20T04:02:51.954Z,-5.80
2019-01-20T04:05:20.357Z,-5.80
2019-01-20T04:07:48.768Z,-5.80
2019-01-20T04:10:17.171Z,-5.70
2019-01-20T04:12:45.565Z,-5.70
2019-01-20T04:15:15.529Z,-5.60
2019-01-20T04:17:43.996Z,-5.60
2019-01-20T04:20:14.070Z,-5.50
2019-01-20T04:22:42.479Z,-5.50
2019-01-20T04:25:16.777Z,-5.50
2019-01-20T04:27:45.196Z,-5.50
2019-01-20T04:30:16.150Z,-5.50
2019-01-20T04:32:44.542Z,-5.40
2019-01-20T04:35:13.108Z,-5.40
2019-01-20T04:37:41.501Z,-5.40
2019-01-20T04:40:12.744Z,-5.40
2019-01-20T04:42:41.558Z,-5.40
2019-01-20T04:45:12.520Z,-5.30
2019-01-20T04:47:40.917Z,-5.30
2019-01-20T04:50:12.244Z,-5.30
2019-01-20T04:52:40.667Z,-5.20
2019-01-20T04:55:11.113Z,-5.20
2019-01-20T04:57:39.880Z,-5.10
2019-01-20T05:00:11.354Z,-5.10
2019-01-20T05:02:39.763Z,-5.00
2019-01-20T05:05:08.232Z,-5.00
2019-01-20T05:07:36.653Z,-4.90
2019-01-20T05:10:08.430Z,-4.80
2019-01-20T05:12:37.822Z,-4.80
2019-01-20T05:15:09.546Z,-4.70
2019-01-20T05:17:37.942Z,-4.70
2019-01-20T05:20:08.824Z,-4.60
2019-01-20T05:22:37.226Z,-4.60
2019-01-20T05:25:08.533Z,-4.50
2019-01-20T05:27:36.962Z,-4.50
2019-01-20T05:30:11.462Z,-4.40
2019-01-20T05:32:39.858Z,-4.30
2019-01-20T05:35:09.917Z,-4.30
2019-01-20T05:37:38.321Z,-4.20
2019-01-20T05:40:09.920Z,-4.20
2019-01-20T05:42:45.664Z,-4.10
2019-01-20T05:45:11.707Z,-4.00
2019-01-20T05:47:40.145Z,-4.00
2019-01-20T05:50:11.141Z,-3.90
2019-01-20T05:52:39.559Z,-3.90
2019-01-20T05:55:10.533Z,-3.90
2019-01-20T05:57:38.931Z,-3.80
2019-01-20T06:00:19.168Z,-3.80
2019-01-20T06:02:47.582Z,-3.80
2019-01-20T06:05:15.986Z,-3.70
2019-01-20T06:07:44.413Z,-3.80
2019-01-20T06:10:13.651Z,-3.80
2019-01-20T06:12:42.050Z,-3.80
2019-01-20T06:15:15.803Z,-3.80
2019-01-20T06:17:44.267Z,-3.80
2019-01-20T06:20:14.477Z,-3.90
2019-01-20T06:22:42.894Z,-3.90
2019-01-20T06:25:11.738Z,-4.00
2019-01-20T06:27:40.137Z,-4.10
2019-01-20T06:30:22.889Z,-4.20
2019-01-20T06:32:51.312Z,-4.20
2019-01-20T06:35:19.717Z,-4.30
2019-01-20T06:37:48.130Z,-4.40
2019-01-20T06:40:16.606Z,-4.50
2019-01-20T06:42:45.341Z,-4.60
2019-01-20T06:45:14.783Z,-4.60
2019-01-20T06:47:43.199Z,-4.70
2019-01-20T06:50:20.703Z,-4.70
2019-01-20T06:52:49.190Z,-4.70
2019-01-20T06:55:17.585Z,-4.70
2019-01-20T06:57:45.995Z,-4.70
2019-01-20T07:00:19.828Z,-4.70
2019-01-20T07:02:48.465Z,-4.80
2019-01-20T07:05:16.952Z,-4.80
2019-01-20T07:07:45.366Z,-4.80
2019-01-20T07:10:15.741Z,-4.90
2019-01-20T07:12:44.277Z,-4.90
2019-01-20T07:15:17.942Z,-4.90
2019-01-20T07:17:46.336Z,-4.90
2019-01-20T07:20:15.595Z,-4.90
2019-01-20T07:22:44.294Z,-4.90
2019-01-20T07:25:13.362Z,-4.80
2019-01-20T07:27:41.837Z,-4.80
2019-01-20T07:30:15.995Z,-4.70
2019-01-20T07:32:44.397Z,-4.70
2019-01-20T07:35:15.334Z,-4.60
2019-01-20T07:37:43.729Z,-4.50
2019-01-20T07:40:15.909Z,-4.50
2019-01-20T07:42:44.501Z,-4.40
2019-01-20T07:45:14.745Z,-4.30
2019-01-20T07:47:43.245Z,-4.30
2019-01-20T07:50:17.755Z,-4.20
2019-01-20T07:52:46.219Z,-4.20
2019-01-20T07:55:14.625Z,-4.10
2019-01-20T07:57:43.053Z,-4.10
2019-01-20T08:00:19.050Z,-4.00
2019-01-20T08:02:47.484Z,-4.00
2019-01-20T08:05:16.015Z,-4.00
2019-01-20T08:07:44.429Z,-3.90
2019-01-20T08:10:15.643Z,-3.90
2019-01-20T08:12:44.050Z,-3.80
2019-01-20T08:15:14.621Z,-3.70
2019-01-20T08:17:43.065Z,-3.70
2019-01-20T08:20:17.400Z,-3.60
2019-01-20T08:22:45.805Z,-3.50
2019-01-20T08:25:16.047Z,-3.40
2019-01-20T08:27:44.526Z,-3.30
2019-01-20T08:30:37.546Z,-3.30
2019-01-20T08:33:05.950Z,-3.20
2019-01-20T08:35:34.356Z,-3.10
2019-01-20T08:38:02.754Z,-2.90
2019-01-20T08:40:31.818Z,-2.80
2019-01-20T08:43:00.349Z,-2.60
2019-01-20T08:45:46.857Z,-2.40
2019-01-20T08:48:18.365Z,-2.30
2019-01-20T08:50:46.773Z,-2.10
2019-01-20T08:53:15.174Z,-2.10
2019-01-20T08:55:43.873Z,-2.00
2019-01-20T08:58:12.305Z,-2.00
2019-01-20T09:00:40.801Z,-1.90
2019-01-20T09:03:09.193Z,-1.90
2019-01-20T09:05:37.590Z,-1.90
2019-01-20T09:08:06.022Z,-1.80
2019-01-20T09:10:34.425Z,-1.70
2019-01-20T09:13:04.705Z,-1.70
2019-01-20T09:15:33.111Z,-1.50
2019-01-20T09:18:01.524Z,-1.40
2019-01-20T09:20:30.227Z,-1.30
2019-01-20T09:22:58.656Z,-1.20
2019-01-20T09:25:27.045Z,-1.00
2019-01-20T09:27:55.441Z,-0.80
2019-01-20T09:30:24.390Z,-0.60
2019-01-20T09:32:52.793Z,-0.40
2019-01-20T09:35:21.189Z,-0.20
2019-01-20T09:37:49.687Z,-0.10
2019-01-20T09:40:18.647Z,0.10
2019-01-20T09:42:47.041Z,0.20
2019-01-20T09:48:21.320Z,0.40
2019-01-20T09:50:49.738Z,0.50
2019-01-20T09:53:18.134Z,0.50
2019-01-20T09:55:46.606Z,0.60
2019-01-20T09:58:15.012Z,0.60
2019-01-20T10:00:43.398Z,0.70
2019-01-20T10:03:16.181Z,0.70
2019-01-20T10:05:42.000Z,0.70
2019-01-20T10:08:10.404Z,0.80
2019-01-20T10:10:38.817Z,0.80
2019-01-20T10:13:07.219Z,0.90
2019-01-20T10:15:35.619Z,1.00
2019-01-20T10:18:04.011Z,1.00
2019-01-20T10:20:33.178Z,1.10
2019-01-20T10:23:01.741Z,1.10
2019-01-20T10:25:30.138Z,1.10
2019-01-20T10:27:58.624Z,1.20
2019-01-20T10:30:32.105Z,1.20
2019-01-20T10:33:00.557Z,1.20
2019-01-20T10:35:33.547Z,1.20
2019-01-20T10:38:03.579Z,1.20
2019-01-20T10:40:32.354Z,1.20
2019-01-20T10:43:00.754Z,1.20
2019-01-20T10:45:29.145Z,1.40
2019-01-20T10:47:57.562Z,1.30
2019-01-20T10:50:26.035Z,1.40
2019-01-20T10:52:54.431Z,1.50
2019-01-20T10:55:22.832Z,1.60
2019-01-20T10:57:51.487Z,1.60
2019-01-20T11:00:25.566Z,1.60
2019-01-20T11:02:54.050Z,1.60
2019-01-20T11:05:24.883Z,1.70
2019-01-20T11:07:52.577Z,1.70
2019-01-20T11:10:21.043Z,1.80
2019-01-20T11:12:49.802Z,1.80
2019-01-20T11:15:18.262Z,1.90
2019-01-20T11:17:46.743Z,2.00
2019-01-20T11:20:17.769Z,2.00
2019-01-20T11:22:46.172Z,2.10
2019-01-20T11:25:20.611Z,2.10
2019-01-20T11:27:49.122Z,2.10
2019-01-20T11:30:17.658Z,2.10
2019-01-20T11:32:46.137Z,2.20
2019-01-20T11:35:19.314Z,2.20
2019-01-20T11:37:47.719Z,2.20
2019-01-20T11:40:16.498Z,2.30
2019-01-20T11:42:44.906Z,2.30
2019-01-20T11:45:18.833Z,2.40
2019-01-20T11:47:47.303Z,2.40
2019-01-20T11:50:16.575Z,2.40
2019-01-20T11:52:44.974Z,2.50
2019-01-20T11:55:19.055Z,2.50
2019-01-20T11:57:47.526Z,2.50
2019-01-20T12:00:18.923Z,2.40
2019-01-20T12:02:47.586Z,2.40
2019-01-20T12:05:17.521Z,2.40
2019-01-20T12:07:45.921Z,2.30
2019-01-20T12:10:14.865Z,2.20
2019-01-20T12:12:44.967Z,2.20
2019-01-20T12:15:15.098Z,2.10
2019-01-20T12:17:43.520Z,2.10
2019-01-20T12:20:14.326Z,2.20
2019-01-20T12:22:43.383Z,2.20
2019-01-20T12:25:16.727Z,2.20
2019-01-20T12:27:45.298Z,2.30
2019-01-20T12:30:33.526Z,2.20
2019-01-20T12:33:02.095Z,2.30
2019-01-20T12:35:30.494Z,2.20
2019-01-20T12:37:58.959Z,2.20
2019-01-20T12:40:36.485Z,2.20
2019-01-20T12:43:05.146Z,2.10
2019-01-20T12:45:33.754Z,2.10
2019-01-20T12:48:02.225Z,2.10
2019-01-20T12:50:30.621Z,2.00
2019-01-20T12:52:59.026Z,2.00
2019-01-20T12:55:27.510Z,2.10
2019-01-20T12:57:56.142Z,2.10
2019-01-20T13:00:24.614Z,2.10
2019-01-20T13:02:53.034Z,2.10
2019-01-20T13:05:21.442Z,2.10
2019-01-20T13:07:49.907Z,2.10
2019-01-20T13:10:19.557Z,2.10
2019-01-20T13:12:48.194Z,2.00
2019-01-20T13:15:18.854Z,2.00
2019-01-20T13:17:47.247Z,2.00
2019-01-20T13:20:20.308Z,1.90
2019-01-20T13:22:48.778Z,1.80
2019-01-20T13:25:20.022Z,1.80
2019-01-20T13:27:48.491Z,1.80
2019-01-20T13:30:19.147Z,1.70
2019-01-20T13:32:47.580Z,1.70
2019-01-20T13:35:17.226Z,1.60
2019-01-20T13:37:51.027Z,1.60
2019-01-20T13:40:25.411Z,1.50
2019-01-20T13:42:53.894Z,1.50
2019-01-20T13:45:22.576Z,1.40
2019-01-20T13:47:51.011Z,1.30
2019-01-20T13:50:20.070Z,1.30
2019-01-20T13:52:49.018Z,1.20
2019-01-20T13:55:18.058Z,1.20
2019-01-20T13:57:46.470Z,1.10
2019-01-20T14:00:19.752Z,1.10
2019-01-20T14:02:48.217Z,1.10
2019-01-20T14:05:16.631Z,1.00
2019-01-20T14:07:45.243Z,1.00
2019-01-20T14:10:19.410Z,0.90
2019-01-20T14:12:47.918Z,0.90
2019-01-20T14:15:17.311Z,0.90
2019-01-20T14:17:46.554Z,0.90
2019-01-20T14:20:17.663Z,0.80
2019-01-20T14:22:46.468Z,0.80
2019-01-20T14:25:18.588Z,0.80
2019-01-20T14:27:47.002Z,0.80
2019-01-20T14:30:20.815Z,0.70
2019-01-20T14:32:50.278Z,0.70
2019-01-20T14:35:18.676Z,0.70
2019-01-20T14:37:47.075Z,0.60
2019-01-20T14:40:17.637Z,0.60
2019-01-20T14:42:46.053Z,0.60
2019-01-20T14:45:19.085Z,0.50
2019-01-20T14:47:47.862Z,0.50
2019-01-20T14:50:19.354Z,0.40
2019-01-20T14:52:47.835Z,0.40
2019-01-20T14:55:17.010Z,0.40
2019-01-20T14:57:45.430Z,0.40
2019-01-20T15:00:17.149Z,0.30
2019-01-20T15:02:45.554Z,0.30
2019-01-20T15:05:14.241Z,0.20
2019-01-20T15:07:42.643Z,0.20
2019-01-20T15:10:15.790Z,0.20
2019-01-20T15:12:44.270Z,0.20
2019-01-20T15:15:21.633Z,0.20
2019-01-20T15:17:50.111Z,0.20
2019-01-20T15:20:18.528Z,0.20
2019-01-20T15:22:47.164Z,0.20
2019-01-20T15:25:19.783Z,0.20
2019-01-20T15:27:48.823Z,0.20
2019-01-20T15:30:31.595Z,0.10
2019-01-20T15:33:01.646Z,0.10
2019-01-20T15:35:30.041Z,0.10
2019-01-20T15:37:58.513Z,0.10
2019-01-20T15:40:27.318Z,0.10
2019-01-20T15:42:56.167Z,0.00
2019-01-20T15:45:25.115Z,0.00
2019-01-20T15:47:53.790Z,0.00
2019-01-20T15:50:27.395Z,0.00
2019-01-20T15:52:55.785Z,0.00
2019-01-20T15:55:24.526Z,-0.10
2019-01-20T15:57:53.270Z,0.00
2019-01-20T16:00:26.822Z,-0.10
2019-01-20T16:02:55.455Z,0.00
2019-01-20T16:05:25.001Z,0.00
2019-01-20T16:07:53.401Z,0.00
2019-01-20T16:10:21.839Z,0.00
2019-01-20T16:12:50.247Z,-0.10
2019-01-20T16:15:39.509Z,-0.10
2019-01-20T16:18:07.925Z,-0.10
2019-01-20T16:20:36.341Z,-0.10
2019-01-20T16:23:05.417Z,-0.10
2019-01-20T16:25:34.765Z,-0.10
2019-01-20T16:28:03.437Z,-0.20
2019-01-20T16:30:34.184Z,-0.20
2019-01-20T16:33:02.661Z,-0.20
2019-01-20T16:35:31.078Z,-0.20
2019-01-20T16:38:00.210Z,-0.20
2019-01-20T16:40:28.770Z,-0.20
2019-01-20T16:42:57.183Z,-0.20
2019-01-20T16:45:34.014Z,-0.20
2019-01-20T16:48:02.114Z,-0.20
2019-01-20T16:50:30.501Z,-0.20
2019-01-20T16:52:58.912Z,-0.20
2019-01-20T16:55:28.105Z,-0.20
2019-01-20T16:57:56.493Z,-0.20
2019-01-20T17:00:30.552Z,-0.20
2019-01-20T17:02:58.940Z,-0.20
2019-01-20T17:05:27.511Z,-0.20
2019-01-20T17:07:55.922Z,-0.30
2019-01-20T17:10:33.033Z,-0.30
2019-01-20T17:13:01.441Z,-0.30
2019-01-20T17:15:50.731Z,-0.30
2019-01-20T17:18:19.126Z,-0.40
2019-01-20T17:20:47.529Z,-0.30
2019-01-20T17:23:15.938Z,-0.30
2019-01-20T17:25:44.405Z,-0.30
2019-01-20T17:28:12.837Z,-0.30
2019-01-20T17:30:41.756Z,-0.30
2019-01-20T17:33:11.111Z,-0.20
2019-01-20T17:35:39.525Z,-0.20
2019-01-20T17:38:08.076Z,-0.20
2019-01-20T17:40:36.477Z,-0.20
2019-01-20T17:43:06.241Z,-0.30
2019-01-20T17:45:37.585Z,-0.20
2019-01-20T17:48:06.053Z,-0.20
2019-01-20T17:50:36.798Z,-0.30
2019-01-20T17:53:06.819Z,-0.30
2019-01-20T17:55:35.370Z,-0.30
2019-01-20T17:58:04.622Z,-0.30
2019-01-20T18:00:36.097Z,-0.30
2019-01-20T18:03:06.143Z,-0.30
2019-01-20T18:05:34.830Z,-0.30
2019-01-20T18:08:03.478Z,-0.30
2019-01-20T18:10:31.961Z,-0.30
2019-01-20T18:13:00.394Z,-0.30
2019-01-20T18:15:28.863Z,-0.20
2019-01-20T18:17:58.709Z,-0.30
2019-01-20T18:20:37.548Z,-0.30
2019-01-20T18:23:06.018Z,-0.30
2019-01-20T18:25:34.490Z,-0.20
2019-01-20T18:28:02.911Z,-0.30
2019-01-20T18:30:31.852Z,-0.30
2019-01-20T18:33:00.259Z,-0.30
2019-01-20T18:35:29.554Z,-0.40
2019-01-20T18:37:58.429Z,-0.40
2019-01-20T18:40:28.406Z,-0.40
2019-01-20T18:42:56.823Z,-0.40
2019-01-20T18:45:28.084Z,-0.40
2019-01-20T18:48:15.818Z,-0.40
2019-01-20T18:50:44.239Z,-0.40
2019-01-20T18:53:12.630Z,-0.30
2019-01-20T18:55:41.030Z,-0.30
2019-01-20T18:58:17.107Z,-0.30
2019-01-20T19:04:20.802Z,-0.30
2019-01-20T19:06:49.496Z,-0.50
2019-01-20T19:09:17.894Z,-0.40
2019-01-20T19:11:46.350Z,-0.30
2019-01-20T19:14:14.753Z,-0.40
2019-01-20T19:16:43.165Z,-0.40
2019-01-20T19:19:11.574Z,-0.40
2019-01-20T19:21:39.988Z,-0.50
2019-01-20T19:24:08.388Z,-0.40
2019-01-20T19:26:37.012Z,-0.40
2019-01-20T19:29:05.457Z,-0.40
2019-01-20T19:31:33.852Z,-0.40
2019-01-20T19:34:02.718Z,-0.40
2019-01-20T19:36:31.110Z,-0.40
2019-01-20T19:38:59.514Z,-0.40
2019-01-20T19:41:27.931Z,-0.40
2019-01-20T19:43:56.330Z,-0.40
2019-01-20T19:46:24.734Z,-0.30
2019-01-20T19:48:53.231Z,-0.50
2019-01-20T19:51:21.634Z,-0.50
2019-01-20T19:53:50.054Z,-0.40
2019-01-20T19:56:18.486Z,-0.50
2019-01-20T19:58:46.885Z,-0.50
2019-01-20T20:01:15.283Z,-0.60
2019-01-20T20:03:43.701Z,-0.50
2019-01-20T20:06:12.423Z,-0.50
2019-01-20T20:08:40.858Z,-0.50
2019-01-20T20:11:09.253Z,-0.50
2019-01-20T20:13:37.681Z,-0.50
2019-01-20T20:16:06.090Z,-0.50
2019-01-20T20:18:34.486Z,-0.50
2019-01-20T20:21:02.923Z,-0.60
2019-01-20T20:23:31.346Z,-0.60
2019-01-20T20:25:59.754Z,-0.60
2019-01-20T20:28:28.167Z,-0.60
2019-01-20T20:30:56.578Z,-0.60
2019-01-20T20:33:24.991Z,-0.60
2019-01-20T20:35:53.714Z,-0.70
2019-01-20T20:38:22.147Z,-0.70
2019-01-20T20:40:50.586Z,-0.70
2019-01-20T20:43:19.020Z,-0.70
2019-01-20T20:45:47.464Z,-0.70
2019-01-20T20:48:15.856Z,-0.70
2019-01-20T20:50:44.354Z,-0.70
2019-01-20T20:53:12.757Z,-0.70
2019-01-20T20:55:41.157Z,-0.70
2019-01-20T20:58:09.586Z,-0.70
2019-01-20T21:00:39.146Z,-0.70
2019-01-20T21:03:10.381Z,-0.70
2019-01-20T21:05:38.849Z,-0.70
2019-01-20T21:08:07.294Z,-0.70
2019-01-20T21:10:35.703Z,-0.70
2019-01-20T21:13:04.170Z,-0.70
2019-01-20T21:15:32.578Z,-0.80
2019-01-20T21:18:00.994Z,-0.80
2019-01-20T21:20:29.394Z,-1.00
2019-01-20T21:22:57.825Z,-0.70
2019-01-20T21:25:26.217Z,-0.80
2019-01-20T21:27:54.631Z,-0.80
2019-01-20T21:30:27.983Z,-0.70
2019-01-20T21:32:56.428Z,-0.80
2019-01-20T21:35:24.837Z,-0.80
2019-01-20T21:37:53.234Z,-0.80
2019-01-20T21:40:21.815Z,-0.80
2019-01-20T21:42:50.210Z,-0.80
2019-01-20T21:45:18.709Z,-0.80
2019-01-20T21:47:47.109Z,-0.80
2019-01-20T21:50:24.226Z,-0.90
2019-01-20T21:52:52.902Z,-0.90
2019-01-20T21:57:50.210Z,-1.00
2019-01-20T22:00:20.973Z,-1.00
2019-01-20T22:02:49.575Z,-0.90
2019-01-20T22:05:18.191Z,-0.90
2019-01-20T22:07:46.768Z,-1.10
2019-01-20T22:10:17.133Z,-1.10
2019-01-20T22:12:45.538Z,-1.10
2019-01-20T22:15:15.119Z,-1.20
2019-01-20T22:17:43.985Z,-1.20
2019-01-20T22:20:14.439Z,-1.20
2019-01-20T22:22:42.985Z,-1.10
2019-01-20T22:25:12.442Z,-1.30
2019-01-20T22:27:41.173Z,-1.30
2019-01-20T22:30:14.838Z,-1.40
2019-01-20T22:32:43.246Z,-1.50
2019-01-20T22:35:14.529Z,-1.60
2019-01-20T22:37:42.945Z,-1.60
2019-01-20T22:40:14.347Z,-1.90
2019-01-20T22:42:42.749Z,-1.80
2019-01-20T22:45:13.710Z,-1.80
2019-01-20T22:47:42.106Z,-1.90
2019-01-20T22:50:12.395Z,-2.00
2019-01-20T22:52:41.169Z,-2.00
2019-01-20T22:55:12.423Z,-3.00
2019-01-20T22:57:40.838Z,-2.20
2019-01-20T23:00:46.974Z,-2.20
2019-01-20T23:03:15.776Z,-2.30
2019-01-20T23:05:44.246Z,-2.30
2019-01-20T23:08:12.739Z,-2.30
2019-01-20T23:10:41.122Z,-2.30
2019-01-20T23:13:09.597Z,-2.40
2019-01-20T23:15:38.005Z,-2.30
2019-01-20T23:18:06.647Z,-2.40
2019-01-20T23:20:35.166Z,-2.40
2019-01-20T23:23:03.641Z,-2.50
2019-01-20T23:25:32.049Z,-2.60
2019-01-20T23:28:00.455Z,-2.60
2019-01-20T23:30:28.866Z,-2.60
2019-01-20T23:32:57.351Z,-2.70
2019-01-20T23:35:25.738Z,-2.70
2019-01-20T23:37:54.346Z,-2.80
2019-01-20T23:40:22.747Z,-3.00
2019-01-20T23:42:51.218Z,-3.00
2019-01-20T23:45:19.650Z,-3.10
2019-01-20T23:47:48.104Z,-3.30
2019-01-20T23:50:17.562Z,-3.30
2019-01-20T23:52:46.145Z,-3.40
2019-01-20T23:55:14.689Z,-3.40
2019-01-20T23:57:43.178Z,-3.50
